sensor_id;sensor_type;location;lat;lon;timestamp;temperature;humidity
20337;DHT22;10326;53.660;10.200;2022-11-15T00:02:12;10.20;76.30
20337;DHT22;10326;53.660;10.200;2022-11-15T00:04:57;10.20;76.30
20337;DHT22;10326;53.660;10.200;2022-11-15T00:07:43;10.20;76.20
20337;DHT22;10326;53.660;10.200;2022-11-15T00:10:30;10.10;76.10
20337;DHT22;10326;53.660;10.200;2022-11-15T00:13:16;10.10;76.30
20337;DHT22;10326;53.660;10.200;2022-11-15T00:16:02;10.10;76.40
20337;DHT22;10326;53.660;10.200;2022-11-15T00:18:48;10.10;76.40
20337;DHT22;10326;53.660;10.200;2022-11-15T00:21:34;10.10;76.30
20337;DHT22;10326;53.660;10.200;2022-11-15T00:24:20;10.10;76.30
20337;DHT22;10326;53.660;10.200;2022-11-15T00:27:06;10.10;76.30
20337;DHT22;10326;53.660;10.200;2022-11-15T00:29:52;10.10;76.20
20337;DHT22;10326;53.660;10.200;2022-11-15T00:32:38;10.10;76.20
20337;DHT22;10326;53.660;10.200;2022-11-15T00:35:23;10.00;76.00
20337;DHT22;10326;53.660;10.200;2022-11-15T00:38:09;10.00;76.00
20337;DHT22;10326;53.660;10.200;2022-11-15T00:40:55;10.00;76.00
20337;DHT22;10326;53.660;10.200;2022-11-15T00:43:41;10.00;75.90
20337;DHT22;10326;53.660;10.200;2022-11-15T00:46:28;10.00;75.90
20337;DHT22;10326;53.660;10.200;2022-11-15T00:49:13;10.00;75.80
20337;DHT22;10326;53.660;10.200;2022-11-15T00:51:59;9.90;75.70
20337;DHT22;10326;53.660;10.200;2022-11-15T00:54:45;9.90;75.70
20337;DHT22;10326;53.660;10.200;2022-11-15T00:57:30;9.90;75.70
20337;DHT22;10326;53.660;10.200;2022-11-15T01:00:18;9.90;75.70
20337;DHT22;10326;53.660;10.200;2022-11-15T01:03:04;9.80;75.70
20337;DHT22;10326;53.660;10.200;2022-11-15T01:05:49;9.80;75.70
20337;DHT22;10326;53.660;10.200;2022-11-15T01:08:35;9.80;75.70
20337;DHT22;10326;53.660;10.200;2022-11-15T01:11:21;9.80;75.70
20337;DHT22;10326;53.660;10.200;2022-11-15T01:14:07;9.80;75.70
20337;DHT22;10326;53.660;10.200;2022-11-15T01:16:54;9.80;75.70
20337;DHT22;10326;53.660;10.200;2022-11-15T01:19:40;9.80;75.80
20337;DHT22;10326;53.660;10.200;2022-11-15T01:22:25;9.70;75.70
20337;DHT22;10326;53.660;10.200;2022-11-15T01:25:11;9.70;75.80
20337;DHT22;10326;53.660;10.200;2022-11-15T01:27:56;9.70;75.80
20337;DHT22;10326;53.660;10.200;2022-11-15T01:30:42;9.70;75.80
20337;DHT22;10326;53.660;10.200;2022-11-15T01:33:29;9.70;75.80
20337;DHT22;10326;53.660;10.200;2022-11-15T01:36:17;9.70;75.80
20337;DHT22;10326;53.660;10.200;2022-11-15T01:39:06;9.70;75.80
20337;DHT22;10326;53.660;10.200;2022-11-15T01:41:52;9.60;75.80
20337;DHT22;10326;53.660;10.200;2022-11-15T01:44:41;9.60;75.80
20337;DHT22;10326;53.660;10.200;2022-11-15T01:47:29;9.60;75.70
20337;DHT22;10326;53.660;10.200;2022-11-15T01:50:21;9.60;75.60
20337;DHT22;10326;53.660;10.200;2022-11-15T01:53:08;9.60;75.60
20337;DHT22;10326;53.660;10.200;2022-11-15T01:55:54;9.60;75.60
20337;DHT22;10326;53.660;10.200;2022-11-15T01:58:41;9.60;75.50
20337;DHT22;10326;53.660;10.200;2022-11-15T02:01:28;9.50;75.40
20337;DHT22;10326;53.660;10.200;2022-11-15T02:04:18;9.50;75.30
20337;DHT22;10326;53.660;10.200;2022-11-15T02:07:09;9.50;75.30
20337;DHT22;10326;53.660;10.200;2022-11-15T02:09:58;9.50;75.20
20337;DHT22;10326;53.660;10.200;2022-11-15T02:12:48;9.40;75.10
20337;DHT22;10326;53.660;10.200;2022-11-15T02:15:40;9.40;75.00
20337;DHT22;10326;53.660;10.200;2022-11-15T02:18:35;9.40;75.00
20337;DHT22;10326;53.660;10.200;2022-11-15T02:21:29;9.40;75.00
20337;DHT22;10326;53.660;10.200;2022-11-15T02:24:55;9.30;74.90
20337;DHT22;10326;53.660;10.200;2022-11-15T02:31:04;9.30;74.80
20337;DHT22;10326;53.660;10.200;2022-11-15T02:34:01;9.20;74.70
20337;DHT22;10326;53.660;10.200;2022-11-15T02:37:01;9.20;74.70
20337;DHT22;10326;53.660;10.200;2022-11-15T02:39:51;9.20;74.60
20337;DHT22;10326;53.660;10.200;2022-11-15T02:42:45;9.10;74.50
20337;DHT22;10326;53.660;10.200;2022-11-15T02:46:03;9.10;74.50
20337;DHT22;10326;53.660;10.200;2022-11-15T02:48:53;9.10;74.50
20337;DHT22;10326;53.660;10.200;2022-11-15T02:51:40;9.00;74.60
20337;DHT22;10326;53.660;10.200;2022-11-15T02:54:29;9.00;74.60
20337;DHT22;10326;53.660;10.200;2022-11-15T02:57:17;9.00;74.60
20337;DHT22;10326;53.660;10.200;2022-11-15T03:00:09;9.00;74.60
20337;DHT22;10326;53.660;10.200;2022-11-15T03:03:13;8.90;74.40
20337;DHT22;10326;53.660;10.200;2022-11-15T03:06:20;8.90;74.40
20337;DHT22;10326;53.660;10.200;2022-11-15T03:09:16;8.90;74.40
20337;DHT22;10326;53.660;10.200;2022-11-15T03:12:09;8.80;74.40
20337;DHT22;10326;53.660;10.200;2022-11-15T03:15:01;8.80;74.40
20337;DHT22;10326;53.660;10.200;2022-11-15T03:17:54;8.80;74.40
20337;DHT22;10326;53.660;10.200;2022-11-15T03:20:42;8.80;74.30
20337;DHT22;10326;53.660;10.200;2022-11-15T03:23:30;8.80;74.30
20337;DHT22;10326;53.660;10.200;2022-11-15T03:26:19;8.70;74.20
20337;DHT22;10326;53.660;10.200;2022-11-15T03:29:11;8.70;74.30
20337;DHT22;10326;53.660;10.200;2022-11-15T03:32:00;8.70;74.30
20337;DHT22;10326;53.660;10.200;2022-11-15T03:34:52;8.70;74.30
20337;DHT22;10326;53.660;10.200;2022-11-15T03:37:44;8.60;74.20
20337;DHT22;10326;53.660;10.200;2022-11-15T03:40:37;8.60;74.20
20337;DHT22;10326;53.660;10.200;2022-11-15T03:43:30;8.60;74.30
20337;DHT22;10326;53.660;10.200;2022-11-15T03:46:24;8.60;74.40
20337;DHT22;10326;53.660;10.200;2022-11-15T03:49:15;8.60;74.30
20337;DHT22;10326;53.660;10.200;2022-11-15T03:52:04;8.50;74.30
20337;DHT22;10326;53.660;10.200;2022-11-15T03:54:54;8.50;74.30
20337;DHT22;10326;53.660;10.200;2022-11-15T03:57:40;8.50;74.30
20337;DHT22;10326;53.660;10.200;2022-11-15T04:00:26;8.50;74.40
20337;DHT22;10326;53.660;10.200;2022-11-15T04:03:12;8.50;74.50
20337;DHT22;10326;53.660;10.200;2022-11-15T04:05:57;8.40;75.00
20337;DHT22;10326;53.660;10.200;2022-11-15T04:08:43;8.50;74.70
20337;DHT22;10326;53.660;10.200;2022-11-15T04:11:30;8.50;74.80
20337;DHT22;10326;53.660;10.200;2022-11-15T04:14:16;8.50;75.00
20337;DHT22;10326;53.660;10.200;2022-11-15T04:17:01;8.40;74.90
20337;DHT22;10326;53.660;10.200;2022-11-15T04:19:47;8.40;74.90
20337;DHT22;10326;53.660;10.200;2022-11-15T04:22:52;8.40;74.90
20337;DHT22;10326;53.660;10.200;2022-11-15T04:25:59;8.50;75.00
20337;DHT22;10326;53.660;10.200;2022-11-15T04:28:48;8.50;74.90
20337;DHT22;10326;53.660;10.200;2022-11-15T04:31:52;8.50;74.90
20337;DHT22;10326;53.660;10.200;2022-11-15T04:34:37;8.50;74.90
20337;DHT22;10326;53.660;10.200;2022-11-15T04:37:23;8.40;74.80
20337;DHT22;10326;53.660;10.200;2022-11-15T04:40:09;8.40;74.80
20337;DHT22;10326;53.660;10.200;2022-11-15T04:42:56;8.40;74.90
20337;DHT22;10326;53.660;10.200;2022-11-15T04:45:43;8.40;75.00
20337;DHT22;10326;53.660;10.200;2022-11-15T04:48:29;8.40;75.00
20337;DHT22;10326;53.660;10.200;2022-11-15T04:51:15;8.50;75.10
20337;DHT22;10326;53.660;10.200;2022-11-15T04:54:01;8.40;75.10
20337;DHT22;10326;53.660;10.200;2022-11-15T04:56:47;8.40;75.20
20337;DHT22;10326;53.660;10.200;2022-11-15T04:59:32;8.50;75.30
20337;DHT22;10326;53.660;10.200;2022-11-15T05:02:19;8.40;75.30
20337;DHT22;10326;53.660;10.200;2022-11-15T05:05:06;8.40;75.30
20337;DHT22;10326;53.660;10.200;2022-11-15T05:07:51;8.40;75.40
20337;DHT22;10326;53.660;10.200;2022-11-15T05:10:37;8.50;75.50
20337;DHT22;10326;53.660;10.200;2022-11-15T05:13:22;8.50;75.70
20337;DHT22;10326;53.660;10.200;2022-11-15T05:16:09;8.50;76.10
20337;DHT22;10326;53.660;10.200;2022-11-15T05:18:56;8.50;76.00
20337;DHT22;10326;53.660;10.200;2022-11-15T05:21:42;8.50;76.20
20337;DHT22;10326;53.660;10.200;2022-11-15T05:24:27;8.60;76.40
20337;DHT22;10326;53.660;10.200;2022-11-15T05:27:13;8.60;76.60
20337;DHT22;10326;53.660;10.200;2022-11-15T05:29:59;8.60;76.70
20337;DHT22;10326;53.660;10.200;2022-11-15T05:32:45;8.70;76.90
20337;DHT22;10326;53.660;10.200;2022-11-15T05:35:35;8.70;77.00
20337;DHT22;10326;53.660;10.200;2022-11-15T05:38:25;8.80;77.30
20337;DHT22;10326;53.660;10.200;2022-11-15T05:41:12;8.80;77.20
20337;DHT22;10326;53.660;10.200;2022-11-15T05:43:58;8.90;77.50
20337;DHT22;10326;53.660;10.200;2022-11-15T05:46:46;8.90;77.50
20337;DHT22;10326;53.660;10.200;2022-11-15T05:49:34;9.00;77.70
20337;DHT22;10326;53.660;10.200;2022-11-15T05:52:27;9.00;77.70
20337;DHT22;10326;53.660;10.200;2022-11-15T05:55:15;9.10;77.90
20337;DHT22;10326;53.660;10.200;2022-11-15T05:58:01;9.10;77.80
20337;DHT22;10326;53.660;10.200;2022-11-15T06:00:47;9.20;78.00
20337;DHT22;10326;53.660;10.200;2022-11-15T06:03:33;9.20;78.10
20337;DHT22;10326;53.660;10.200;2022-11-15T06:06:19;9.20;78.20
20337;DHT22;10326;53.660;10.200;2022-11-15T06:09:07;9.30;78.30
20337;DHT22;10326;53.660;10.200;2022-11-15T06:11:53;9.30;78.50
20337;DHT22;10326;53.660;10.200;2022-11-15T06:14:39;9.40;78.50
20337;DHT22;10326;53.660;10.200;2022-11-15T06:17:25;9.40;78.60
20337;DHT22;10326;53.660;10.200;2022-11-15T06:20:11;9.50;78.70
20337;DHT22;10326;53.660;10.200;2022-11-15T06:22:58;9.50;78.70
20337;DHT22;10326;53.660;10.200;2022-11-15T06:25:45;9.50;78.80
20337;DHT22;10326;53.660;10.200;2022-11-15T06:28:32;9.60;78.90
20337;DHT22;10326;53.660;10.200;2022-11-15T06:31:18;9.60;78.90
20337;DHT22;10326;53.660;10.200;2022-11-15T06:34:03;9.60;78.90
20337;DHT22;10326;53.660;10.200;2022-11-15T06:36:49;9.70;78.90
20337;DHT22;10326;53.660;10.200;2022-11-15T06:39:34;9.70;78.90
20337;DHT22;10326;53.660;10.200;2022-11-15T06:42:21;9.70;78.90
20337;DHT22;10326;53.660;10.200;2022-11-15T06:45:08;9.80;79.20
20337;DHT22;10326;53.660;10.200;2022-11-15T06:47:54;9.80;79.10
20337;DHT22;10326;53.660;10.200;2022-11-15T06:50:40;9.80;79.10
20337;DHT22;10326;53.660;10.200;2022-11-15T06:53:26;9.80;79.00
20337;DHT22;10326;53.660;10.200;2022-11-15T06:56:12;9.90;79.10
20337;DHT22;10326;53.660;10.200;2022-11-15T06:58:59;9.90;79.00
20337;DHT22;10326;53.660;10.200;2022-11-15T07:01:45;9.90;79.10
20337;DHT22;10326;53.660;10.200;2022-11-15T07:04:31;10.00;79.10
20337;DHT22;10326;53.660;10.200;2022-11-15T07:07:16;9.90;79.60
20337;DHT22;10326;53.660;10.200;2022-11-15T07:10:02;10.00;79.10
20337;DHT22;10326;53.660;10.200;2022-11-15T07:12:48;10.00;79.20
20337;DHT22;10326;53.660;10.200;2022-11-15T07:15:36;10.00;79.20
20337;DHT22;10326;53.660;10.200;2022-11-15T07:18:22;10.00;79.20
20337;DHT22;10326;53.660;10.200;2022-11-15T07:21:09;10.00;79.20
20337;DHT22;10326;53.660;10.200;2022-11-15T07:23:56;10.10;79.30
20337;DHT22;10326;53.660;10.200;2022-11-15T07:26:42;10.10;79.20
20337;DHT22;10326;53.660;10.200;2022-11-15T07:29:28;10.10;79.30
20337;DHT22;10326;53.660;10.200;2022-11-15T07:32:14;10.10;79.20
20337;DHT22;10326;53.660;10.200;2022-11-15T07:35:00;10.10;79.30
20337;DHT22;10326;53.660;10.200;2022-11-15T07:37:53;10.10;79.30
20337;DHT22;10326;53.660;10.200;2022-11-15T07:40:40;10.20;80.10
20337;DHT22;10326;53.660;10.200;2022-11-15T07:43:26;10.20;79.30
20337;DHT22;10326;53.660;10.200;2022-11-15T07:46:13;10.20;79.30
20337;DHT22;10326;53.660;10.200;2022-11-15T07:49:00;10.20;79.30
20337;DHT22;10326;53.660;10.200;2022-11-15T07:51:45;10.20;79.30
20337;DHT22;10326;53.660;10.200;2022-11-15T07:54:31;10.30;79.40
20337;DHT22;10326;53.660;10.200;2022-11-15T07:57:16;10.30;79.50
20337;DHT22;10326;53.660;10.200;2022-11-15T08:00:03;10.30;79.60
20337;DHT22;10326;53.660;10.200;2022-11-15T08:02:49;10.30;79.60
20337;DHT22;10326;53.660;10.200;2022-11-15T08:05:37;10.30;79.50
20337;DHT22;10326;53.660;10.200;2022-11-15T08:08:23;10.40;79.70
20337;DHT22;10326;53.660;10.200;2022-11-15T08:11:08;10.40;79.60
20337;DHT22;10326;53.660;10.200;2022-11-15T08:13:54;10.40;79.60
20337;DHT22;10326;53.660;10.200;2022-11-15T08:16:39;10.40;79.60
20337;DHT22;10326;53.660;10.200;2022-11-15T08:19:25;10.40;79.70
20337;DHT22;10326;53.660;10.200;2022-11-15T08:22:12;10.50;79.80
20337;DHT22;10326;53.660;10.200;2022-11-15T08:24:58;10.50;79.80
20337;DHT22;10326;53.660;10.200;2022-11-15T08:27:44;10.50;79.80
20337;DHT22;10326;53.660;10.200;2022-11-15T08:30:33;10.60;79.80
20337;DHT22;10326;53.660;10.200;2022-11-15T08:33:20;10.60;79.80
20337;DHT22;10326;53.660;10.200;2022-11-15T08:36:10;10.60;79.80
20337;DHT22;10326;53.660;10.200;2022-11-15T08:39:00;10.60;79.80
20337;DHT22;10326;53.660;10.200;2022-11-15T08:41:45;10.60;79.70
20337;DHT22;10326;53.660;10.200;2022-11-15T08:44:31;10.60;79.60
20337;DHT22;10326;53.660;10.200;2022-11-15T08:47:17;10.70;79.80
20337;DHT22;10326;53.660;10.200;2022-11-15T08:50:04;10.70;79.90
20337;DHT22;10326;53.660;10.200;2022-11-15T08:52:50;10.70;80.00
20337;DHT22;10326;53.660;10.200;2022-11-15T08:55:38;10.70;80.00
20337;DHT22;10326;53.660;10.200;2022-11-15T08:58:25;10.70;80.00
20337;DHT22;10326;53.660;10.200;2022-11-15T09:01:16;10.70;80.00
20337;DHT22;10326;53.660;10.200;2022-11-15T09:04:04;10.80;80.20
20337;DHT22;10326;53.660;10.200;2022-11-15T09:06:50;10.80;80.10
20337;DHT22;10326;53.660;10.200;2022-11-15T09:09:36;10.80;80.10
20337;DHT22;10326;53.660;10.200;2022-11-15T09:12:23;10.80;80.10
20337;DHT22;10326;53.660;10.200;2022-11-15T09:15:09;10.80;80.10
20337;DHT22;10326;53.660;10.200;2022-11-15T09:17:58;10.80;80.10
20337;DHT22;10326;53.660;10.200;2022-11-15T09:20:44;10.90;80.20
20337;DHT22;10326;53.660;10.200;2022-11-15T09:23:30;10.90;80.20
20337;DHT22;10326;53.660;10.200;2022-11-15T09:26:15;10.90;80.30
20337;DHT22;10326;53.660;10.200;2022-11-15T09:29:02;11.00;80.40
20337;DHT22;10326;53.660;10.200;2022-11-15T09:31:48;11.00;80.50
20337;DHT22;10326;53.660;10.200;2022-11-15T09:34:37;11.00;80.40
20337;DHT22;10326;53.660;10.200;2022-11-15T09:37:22;11.00;80.50
20337;DHT22;10326;53.660;10.200;2022-11-15T09:40:10;11.10;80.60
20337;DHT22;10326;53.660;10.200;2022-11-15T09:43:15;11.10;80.70
20337;DHT22;10326;53.660;10.200;2022-11-15T09:46:15;11.10;81.00
20337;DHT22;10326;53.660;10.200;2022-11-15T09:49:13;11.20;80.80
20337;DHT22;10326;53.660;10.200;2022-11-15T09:51:59;11.20;80.80
20337;DHT22;10326;53.660;10.200;2022-11-15T09:54:30;11.30;80.90
20337;DHT22;10326;53.660;10.200;2022-11-15T09:57:04;11.30;81.00
20337;DHT22;10326;53.660;10.200;2022-11-15T09:59:50;11.30;81.10
20337;DHT22;10326;53.660;10.200;2022-11-15T10:02:37;11.40;81.30
20337;DHT22;10326;53.660;10.200;2022-11-15T10:05:14;11.40;81.90
20337;DHT22;10326;53.660;10.200;2022-11-15T10:07:49;11.40;81.10
20337;DHT22;10326;53.660;10.200;2022-11-15T10:10:25;11.50;81.10
20337;DHT22;10326;53.660;10.200;2022-11-15T10:12:55;11.50;81.30
20337;DHT22;10326;53.660;10.200;2022-11-15T10:15:23;11.50;81.20
20337;DHT22;10326;53.660;10.200;2022-11-15T10:18:13;11.60;81.20
20337;DHT22;10326;53.660;10.200;2022-11-15T10:20:47;11.60;81.50
20337;DHT22;10326;53.660;10.200;2022-11-15T10:23:17;11.70;81.50
20337;DHT22;10326;53.660;10.200;2022-11-15T10:25:46;11.70;81.40
20337;DHT22;10326;53.660;10.200;2022-11-15T10:28:17;11.70;81.40
20337;DHT22;10326;53.660;10.200;2022-11-15T10:30:51;11.80;81.60
20337;DHT22;10326;53.660;10.200;2022-11-15T10:33:33;11.80;81.50
20337;DHT22;10326;53.660;10.200;2022-11-15T10:36:22;11.90;81.70
20337;DHT22;10326;53.660;10.200;2022-11-15T10:38:56;11.90;82.00
20337;DHT22;10326;53.660;10.200;2022-11-15T10:41:38;11.90;81.90
20337;DHT22;10326;53.660;10.200;2022-11-15T10:44:28;12.00;82.10
20337;DHT22;10326;53.660;10.200;2022-11-15T10:47:24;12.00;82.20
20337;DHT22;10326;53.660;10.200;2022-11-15T10:50:00;12.10;82.30
20337;DHT22;10326;53.660;10.200;2022-11-15T10:52:30;12.10;82.00
20337;DHT22;10326;53.660;10.200;2022-11-15T10:55:02;12.20;82.00
20337;DHT22;10326;53.660;10.200;2022-11-15T10:57:50;12.20;81.90
20337;DHT22;10326;53.660;10.200;2022-11-15T11:00:37;12.20;81.90
20337;DHT22;10326;53.660;10.200;2022-11-15T11:03:08;12.30;82.30
20337;DHT22;10326;53.660;10.200;2022-11-15T11:06:03;12.30;82.00
20337;DHT22;10326;53.660;10.200;2022-11-15T11:08:32;12.30;82.00
20337;DHT22;10326;53.660;10.200;2022-11-15T11:11:00;12.40;81.90
20337;DHT22;10326;53.660;10.200;2022-11-15T11:13:30;12.40;81.90
20337;DHT22;10326;53.660;10.200;2022-11-15T11:19:00;12.40;82.40
20337;DHT22;10326;53.660;10.200;2022-11-15T11:21:40;12.40;81.80
20337;DHT22;10326;53.660;10.200;2022-11-15T11:24:16;12.50;81.80
20337;DHT22;10326;53.660;10.200;2022-11-15T11:27:01;12.50;81.80
20337;DHT22;10326;53.660;10.200;2022-11-15T11:29:43;12.50;81.80
20337;DHT22;10326;53.660;10.200;2022-11-15T11:32:35;12.50;81.90
20337;DHT22;10326;53.660;10.200;2022-11-15T11:35:12;12.60;82.20
20337;DHT22;10326;53.660;10.200;2022-11-15T11:37:56;12.60;82.00
20337;DHT22;10326;53.660;10.200;2022-11-15T11:40:41;12.60;82.00
20337;DHT22;10326;53.660;10.200;2022-11-15T11:43:19;12.60;82.00
20337;DHT22;10326;53.660;10.200;2022-11-15T11:46:05;12.70;82.20
20337;DHT22;10326;53.660;10.200;2022-11-15T11:48:42;12.70;82.20
20337;DHT22;10326;53.660;10.200;2022-11-15T11:51:16;12.70;82.10
20337;DHT22;10326;53.660;10.200;2022-11-15T11:53:52;12.80;82.30
20337;DHT22;10326;53.660;10.200;2022-11-15T11:56:28;12.80;82.30
20337;DHT22;10326;53.660;10.200;2022-11-15T11:59:02;12.80;82.30
20337;DHT22;10326;53.660;10.200;2022-11-15T12:01:37;12.90;82.30
20337;DHT22;10326;53.660;10.200;2022-11-15T12:04:11;12.90;82.20
20337;DHT22;10326;53.660;10.200;2022-11-15T12:06:45;12.90;82.30
20337;DHT22;10326;53.660;10.200;2022-11-15T12:09:20;13.00;82.40
20337;DHT22;10326;53.660;10.200;2022-11-15T12:11:54;13.00;82.50
20337;DHT22;10326;53.660;10.200;2022-11-15T12:14:29;13.00;82.40
20337;DHT22;10326;53.660;10.200;2022-11-15T12:16:59;13.00;82.40
20337;DHT22;10326;53.660;10.200;2022-11-15T12:19:27;13.10;82.40
20337;DHT22;10326;53.660;10.200;2022-11-15T12:22:00;13.10;82.50
20337;DHT22;10326;53.660;10.200;2022-11-15T12:24:37;13.20;82.50
20337;DHT22;10326;53.660;10.200;2022-11-15T12:27:14;13.20;82.40
20337;DHT22;10326;53.660;10.200;2022-11-15T12:29:47;13.20;82.30
20337;DHT22;10326;53.660;10.200;2022-11-15T12:32:25;13.30;82.50
20337;DHT22;10326;53.660;10.200;2022-11-15T12:34:55;13.30;82.50
20337;DHT22;10326;53.660;10.200;2022-11-15T12:37:50;13.30;82.40
20337;DHT22;10326;53.660;10.200;2022-11-15T12:40:24;13.30;82.70
20337;DHT22;10326;53.660;10.200;2022-11-15T12:46:04;13.40;82.50
20337;DHT22;10326;53.660;10.200;2022-11-15T12:48:57;13.40;82.30
20337;DHT22;10326;53.660;10.200;2022-11-15T12:54:53;13.50;82.50
20337;DHT22;10326;53.660;10.200;2022-11-15T12:57:43;13.50;82.40
20337;DHT22;10326;53.660;10.200;2022-11-15T13:00:44;13.50;82.40
20337;DHT22;10326;53.660;10.200;2022-11-15T13:03:26;13.50;82.40
20337;DHT22;10326;53.660;10.200;2022-11-15T13:06:10;13.60;82.40
20337;DHT22;10326;53.660;10.200;2022-11-15T13:12:50;13.60;82.70
20337;DHT22;10326;53.660;10.200;2022-11-15T13:15:37;13.70;82.70
20337;DHT22;10326;53.660;10.200;2022-11-15T13:18:37;13.70;82.70
20337;DHT22;10326;53.660;10.200;2022-11-15T13:21:20;13.80;82.70
20337;DHT22;10326;53.660;10.200;2022-11-15T13:24:12;13.80;82.70
20337;DHT22;10326;53.660;10.200;2022-11-15T13:26:40;13.90;82.70
20337;DHT22;10326;53.660;10.200;2022-11-15T13:29:19;13.90;82.60
20337;DHT22;10326;53.660;10.200;2022-11-15T13:31:47;13.90;82.60
20337;DHT22;10326;53.660;10.200;2022-11-15T13:34:25;13.90;82.50
20337;DHT22;10326;53.660;10.200;2022-11-15T13:36:54;14.00;82.60
20337;DHT22;10326;53.660;10.200;2022-11-15T13:39:28;14.00;82.50
20337;DHT22;10326;53.660;10.200;2022-11-15T13:41:56;14.00;82.50
20337;DHT22;10326;53.660;10.200;2022-11-15T13:44:26;14.10;82.50
20337;DHT22;10326;53.660;10.200;2022-11-15T13:47:03;14.10;82.40
20337;DHT22;10326;53.660;10.200;2022-11-15T13:49:31;14.10;82.30
20337;DHT22;10326;53.660;10.200;2022-11-15T13:52:01;14.10;82.20
20337;DHT22;10326;53.660;10.200;2022-11-15T13:54:33;14.10;82.10
20337;DHT22;10326;53.660;10.200;2022-11-15T13:57:12;14.20;82.10
20337;DHT22;10326;53.660;10.200;2022-11-15T13:59:48;14.20;82.00
20337;DHT22;10326;53.660;10.200;2022-11-15T14:02:19;14.20;82.00
20337;DHT22;10326;53.660;10.200;2022-11-15T14:04:51;14.20;82.00
20337;DHT22;10326;53.660;10.200;2022-11-15T14:07:20;14.20;82.00
20337;DHT22;10326;53.660;10.200;2022-11-15T14:09:49;14.20;82.00
20337;DHT22;10326;53.660;10.200;2022-11-15T14:12:31;14.20;82.00
20337;DHT22;10326;53.660;10.200;2022-11-15T14:15:19;14.20;82.00
20337;DHT22;10326;53.660;10.200;2022-11-15T14:17:52;14.30;82.10
20337;DHT22;10326;53.660;10.200;2022-11-15T14:20:30;14.20;82.00
20337;DHT22;10326;53.660;10.200;2022-11-15T14:23:00;14.30;82.00
20337;DHT22;10326;53.660;10.200;2022-11-15T14:25:30;14.30;81.90
20337;DHT22;10326;53.660;10.200;2022-11-15T14:28:29;14.30;81.90
20337;DHT22;10326;53.660;10.200;2022-11-15T14:31:00;14.30;82.00
20337;DHT22;10326;53.660;10.200;2022-11-15T14:33:29;14.30;81.80
20337;DHT22;10326;53.660;10.200;2022-11-15T14:35:59;14.30;81.70
20337;DHT22;10326;53.660;10.200;2022-11-15T14:38:30;14.30;81.70
20337;DHT22;10326;53.660;10.200;2022-11-15T14:40:57;14.30;81.70
20337;DHT22;10326;53.660;10.200;2022-11-15T14:43:24;14.30;81.60
20337;DHT22;10326;53.660;10.200;2022-11-15T14:45:51;14.30;81.60
20337;DHT22;10326;53.660;10.200;2022-11-15T14:48:20;14.30;81.60
20337;DHT22;10326;53.660;10.200;2022-11-15T14:50:48;14.30;81.50
20337;DHT22;10326;53.660;10.200;2022-11-15T14:53:16;14.30;81.50
20337;DHT22;10326;53.660;10.200;2022-11-15T14:55:45;14.30;81.40
20337;DHT22;10326;53.660;10.200;2022-11-15T14:58:12;14.30;81.40
20337;DHT22;10326;53.660;10.200;2022-11-15T15:00:41;14.30;81.30
20337;DHT22;10326;53.660;10.200;2022-11-15T15:03:08;14.30;81.30
20337;DHT22;10326;53.660;10.200;2022-11-15T15:05:39;14.30;81.20
20337;DHT22;10326;53.660;10.200;2022-11-15T15:08:07;14.20;81.10
20337;DHT22;10326;53.660;10.200;2022-11-15T15:10:38;14.20;81.10
20337;DHT22;10326;53.660;10.200;2022-11-15T15:13:14;14.20;81.00
20337;DHT22;10326;53.660;10.200;2022-11-15T15:15:44;14.20;81.00
20337;DHT22;10326;53.660;10.200;2022-11-15T15:18:12;14.20;81.00
20337;DHT22;10326;53.660;10.200;2022-11-15T15:20:41;14.20;80.90
20337;DHT22;10326;53.660;10.200;2022-11-15T15:23:15;14.10;80.70
20337;DHT22;10326;53.660;10.200;2022-11-15T15:25:43;14.10;80.70
20337;DHT22;10326;53.660;10.200;2022-11-15T15:28:11;14.00;80.70
20337;DHT22;10326;53.660;10.200;2022-11-15T15:30:39;14.10;80.80
20337;DHT22;10326;53.660;10.200;2022-11-15T15:33:06;14.00;80.70
20337;DHT22;10326;53.660;10.200;2022-11-15T15:35:34;14.00;80.70
20337;DHT22;10326;53.660;10.200;2022-11-15T15:38:03;13.90;80.60
20337;DHT22;10326;53.660;10.200;2022-11-15T15:40:32;13.90;80.70
20337;DHT22;10326;53.660;10.200;2022-11-15T15:43:00;13.90;80.70
20337;DHT22;10326;53.660;10.200;2022-11-15T15:45:27;13.90;80.70
20337;DHT22;10326;53.660;10.200;2022-11-15T15:47:55;13.80;80.70
20337;DHT22;10326;53.660;10.200;2022-11-15T15:50:24;13.80;80.80
20337;DHT22;10326;53.660;10.200;2022-11-15T15:52:53;13.80;80.90
20337;DHT22;10326;53.660;10.200;2022-11-15T15:55:22;13.70;80.90
20337;DHT22;10326;53.660;10.200;2022-11-15T15:57:50;13.70;81.00
20337;DHT22;10326;53.660;10.200;2022-11-15T16:00:19;13.70;81.00
20337;DHT22;10326;53.660;10.200;2022-11-15T16:02:48;13.70;81.10
20337;DHT22;10326;53.660;10.200;2022-11-15T16:05:17;13.70;81.20
20337;DHT22;10326;53.660;10.200;2022-11-15T16:07:45;13.70;81.40
20337;DHT22;10326;53.660;10.200;2022-11-15T16:10:20;13.70;81.50
20337;DHT22;10326;53.660;10.200;2022-11-15T16:12:52;13.70;81.60
20337;DHT22;10326;53.660;10.200;2022-11-15T16:15:21;13.70;81.60
20337;DHT22;10326;53.660;10.200;2022-11-15T16:17:51;13.70;81.70
20337;DHT22;10326;53.660;10.200;2022-11-15T16:20:34;13.70;81.80
20337;DHT22;10326;53.660;10.200;2022-11-15T16:23:04;13.70;82.00
20337;DHT22;10326;53.660;10.200;2022-11-15T16:25:37;13.70;81.90
20337;DHT22;10326;53.660;10.200;2022-11-15T16:28:16;13.70;81.90
20337;DHT22;10326;53.660;10.200;2022-11-15T16:30:45;13.70;81.90
20337;DHT22;10326;53.660;10.200;2022-11-15T16:33:12;13.70;81.80
20337;DHT22;10326;53.660;10.200;2022-11-15T16:35:40;13.70;81.80
20337;DHT22;10326;53.660;10.200;2022-11-15T16:38:12;13.70;81.70
20337;DHT22;10326;53.660;10.200;2022-11-15T16:40:41;13.70;81.70
20337;DHT22;10326;53.660;10.200;2022-11-15T16:43:09;13.70;81.70
20337;DHT22;10326;53.660;10.200;2022-11-15T16:45:36;13.70;81.80
20337;DHT22;10326;53.660;10.200;2022-11-15T16:48:03;13.70;81.80
20337;DHT22;10326;53.660;10.200;2022-11-15T16:50:32;13.70;81.90
20337;DHT22;10326;53.660;10.200;2022-11-15T16:53:05;13.70;81.90
20337;DHT22;10326;53.660;10.200;2022-11-15T16:55:32;13.70;81.80
20337;DHT22;10326;53.660;10.200;2022-11-15T16:58:01;13.70;81.90
20337;DHT22;10326;53.660;10.200;2022-11-15T17:00:28;13.70;81.90
20337;DHT22;10326;53.660;10.200;2022-11-15T17:02:56;13.70;81.90
20337;DHT22;10326;53.660;10.200;2022-11-15T17:05:24;13.70;81.90
20337;DHT22;10326;53.660;10.200;2022-11-15T17:07:52;13.70;82.00
20337;DHT22;10326;53.660;10.200;2022-11-15T17:10:20;13.70;82.00